Decoded Metar for KAHN (ATHENS in GA, USA) (IATA:AHN) | Meteo·Mobile Aviation Weather
aviador You're here:

KAHN Decoded Metar

ATHENS in GA, USA
Report Time2018-11-12 22:51:00
UTC Time2018-11-12 23:07:16
Flight Rules ifr IFR
Wind020° at 06 kt
W.Decomp.*RWY 02: 6.0 kt HW 0.3 kt RCW
RWY 09: 2.3 kt HW 5.5 kt LCW
W.Rank020° ranks 32
Current wind is above 020° avg. (4.7)
Visibility3219 m
Phenomena:Heavy Rain
Clouds:Broken 006 Hf
Broken 010 Hf
Overcast 019 Hf
Expected CloudBase > 400 ft AGL from Temp-Dew spread
Ceiling600 ft
Temp05°C (ISA -8)
Dew Point04°C (93% RH)
AAT1.5°C
QNH1020 hPa
Density Alt-338 ft
Elevation801 ft
Report Wrong Elevation
Raw Report
METAR KAHN 122251Z 02006KT 2SM +RA BR BKN006 BKN010 OVC019 05/04 A3012
RMK AO2 SLP206 P0029 T00500044=

Extra information for KAHN:More info

Metar Taf Metar & Taf Last 4 Metars F.Rules Stats Wind Profile Meteogram Temp Stats Airport Information Weather charts Add Link Nearby VenuesMetar ALERT Operation Metar Decoded Social comments

AIRNAV info for KAHN